Terminal Aerodrome Forecast
Issued by NWS Sioux Falls, SD

Home | Current Version | Previous Version | Graphics & Text | Print | Product List | Glossary On
Versions: 1 2 3 4 5 6 7 8 9 10 11 12 13 14
922
FTUS43 KFSD 071720
TAFHON
TAF
KHON 071720Z 0718/0818 32029G40KT P6SM OVC040
      TEMPO 0718/0722 2SM -SHSN BLSN BKN025
     FM080500 33025G36KT P6SM BKN030=

USA.gov is the U.S. government's official web portal to all federal, state and local government web resources and services.